createdAt,value
2024-03-12T00:00:44.162Z,8.96
2024-03-12T00:03:11.379Z,8.97
2024-03-12T00:05:38.640Z,8.97
2024-03-12T00:08:09.243Z,8.94
2024-03-12T00:10:36.256Z,8.94
2024-03-12T00:13:03.736Z,8.96
2024-03-12T00:15:30.716Z,8.96
2024-03-12T00:17:57.752Z,8.92
2024-03-12T00:20:24.831Z,8.91
2024-03-12T00:22:52.138Z,8.92
2024-03-12T00:25:19.501Z,8.90
2024-03-12T00:27:52.693Z,8.89
2024-03-12T00:30:20.072Z,8.89
2024-03-12T00:32:47.048Z,8.90
2024-03-12T00:35:13.938Z,8.87
2024-03-12T00:37:41.507Z,8.79
2024-03-12T00:40:11.681Z,8.78
2024-03-12T00:42:43.289Z,8.72
2024-03-12T00:45:12.585Z,8.69
2024-03-12T00:47:42.930Z,8.68
2024-03-12T00:50:11.057Z,8.66
2024-03-12T00:52:42.002Z,8.68
2024-03-12T00:55:09.428Z,8.68
2024-03-12T00:57:39.405Z,8.64
2024-03-12T01:00:07.918Z,8.64
2024-03-12T01:02:34.797Z,8.61
2024-03-12T01:05:01.589Z,8.56
2024-03-12T01:07:28.346Z,8.53
2024-03-12T01:09:55.410Z,8.49
2024-03-12T01:12:22.540Z,8.43
2024-03-12T01:14:49.362Z,8.39
2024-03-12T01:17:19.775Z,8.33
2024-03-12T01:19:46.835Z,8.25
2024-03-12T01:22:13.845Z,8.28
2024-03-12T01:24:40.682Z,8.24
2024-03-12T01:27:10.033Z,8.20
2024-03-12T01:29:37.035Z,8.21
2024-03-12T01:32:04.198Z,8.18
2024-03-12T01:34:31.197Z,8.16
2024-03-12T01:36:58.515Z,8.13
2024-03-12T01:39:25.665Z,8.08
2024-03-12T01:41:53.946Z,8.07
2024-03-12T01:44:21.317Z,8.07
2024-03-12T01:46:48.238Z,8.07
2024-03-12T01:49:16.294Z,8.07
2024-03-12T01:51:43.201Z,8.07
2024-03-12T01:54:10.208Z,8.03
2024-03-12T01:56:37.313Z,8.06
2024-03-12T01:59:07.837Z,8.04
2024-03-12T02:01:34.763Z,8.05
2024-03-12T02:04:01.905Z,8.02
2024-03-12T02:06:31.776Z,8.06
2024-03-12T02:08:58.801Z,8.02
2024-03-12T02:11:26.277Z,8.05
2024-03-12T02:13:53.163Z,8.08
2024-03-12T02:16:20.127Z,7.83
2024-03-12T02:18:46.961Z,8.11
2024-03-12T02:21:13.858Z,8.12
2024-03-12T02:23:41.963Z,8.14
2024-03-12T02:26:09.393Z,8.15
2024-03-12T02:28:40.187Z,8.18
2024-03-12T02:31:08.111Z,8.23
2024-03-12T02:33:35.160Z,8.27
2024-03-12T02:36:02.112Z,8.23
2024-03-12T02:38:29.032Z,8.11
2024-03-12T02:40:56.209Z,8.21
2024-03-12T02:43:23.059Z,8.18
2024-03-12T02:45:49.870Z,8.19
2024-03-12T02:48:20.848Z,8.18
2024-03-12T02:50:54.724Z,8.15
2024-03-12T02:53:22.470Z,8.16
2024-03-12T02:55:49.373Z,8.15
2024-03-12T02:58:16.240Z,8.11
2024-03-12T03:00:43.069Z,8.08
2024-03-12T03:03:09.917Z,8.07
2024-03-12T03:05:36.743Z,8.09
2024-03-12T03:08:03.627Z,8.07
2024-03-12T03:10:30.498Z,8.04
2024-03-12T03:12:57.367Z,8.07
2024-03-12T03:15:24.458Z,8.05
2024-03-12T03:17:51.363Z,8.05
2024-03-12T03:20:18.418Z,8.05
2024-03-12T03:22:45.799Z,8.05
2024-03-12T03:25:13.296Z,8.07
2024-03-12T03:27:40.655Z,8.09
2024-03-12T03:30:09.317Z,8.07
2024-03-12T03:32:36.318Z,8.03
2024-03-12T03:35:04.630Z,8.04
2024-03-12T03:37:31.651Z,8.03
2024-03-12T03:40:02.154Z,7.99
2024-03-12T03:42:29.454Z,7.99
2024-03-12T03:44:56.754Z,8.00
2024-03-12T03:47:23.749Z,8.00
2024-03-12T03:49:50.598Z,7.97
2024-03-12T03:52:17.584Z,7.98
2024-03-12T03:54:44.477Z,7.96
2024-03-12T03:57:14.355Z,7.96
2024-03-12T03:59:41.531Z,7.89
2024-03-12T04:02:08.398Z,7.92
2024-03-12T04:04:35.883Z,7.93
2024-03-12T04:07:02.717Z,7.90
2024-03-12T04:09:29.596Z,7.88
2024-03-12T04:11:58.704Z,7.86
2024-03-12T04:14:25.576Z,7.84
2024-03-12T04:16:52.473Z,7.82
2024-03-12T04:19:20.195Z,7.81
2024-03-12T04:21:50.263Z,7.80
2024-03-12T04:24:17.444Z,7.77
2024-03-12T04:26:44.270Z,7.78
2024-03-12T04:29:11.312Z,7.78
2024-03-12T04:31:38.182Z,7.80
2024-03-12T04:34:05.118Z,7.79
2024-03-12T04:36:32.220Z,7.76
2024-03-12T04:38:59.125Z,7.70
2024-03-12T04:41:26.124Z,7.75
2024-03-12T04:43:53.139Z,7.76
2024-03-12T04:46:20.406Z,7.75
2024-03-12T04:48:50.190Z,7.75
2024-03-12T04:51:17.069Z,7.75
2024-03-12T04:53:46.722Z,7.77
2024-03-12T04:56:13.696Z,7.82
2024-03-12T04:58:40.587Z,7.83
2024-03-12T05:01:07.780Z,7.80
2024-03-12T05:03:37.795Z,7.85
2024-03-12T05:06:04.714Z,7.82
2024-03-12T05:08:31.547Z,7.86
2024-03-12T05:11:01.212Z,7.77
2024-03-12T05:13:30.148Z,7.74
2024-03-12T05:15:57.030Z,7.86
2024-03-12T05:18:24.163Z,7.80
2024-03-12T05:20:51.058Z,7.84
2024-03-12T05:23:18.120Z,7.82
2024-03-12T05:25:45.116Z,7.84
2024-03-12T05:28:12.286Z,7.84
2024-03-12T05:30:39.578Z,7.77
2024-03-12T05:33:08.262Z,7.82
2024-03-12T05:35:35.115Z,7.83
2024-03-12T05:38:05.231Z,7.85
2024-03-12T05:40:35.739Z,7.85
2024-03-12T05:43:02.859Z,7.85
2024-03-12T05:45:30.122Z,7.92
2024-03-12T05:47:57.302Z,7.96
2024-03-12T05:50:24.281Z,8.07
2024-03-12T05:52:56.019Z,8.26
2024-03-12T05:55:25.806Z,8.56
2024-03-12T05:57:53.506Z,8.88
2024-03-12T06:00:20.546Z,9.06
2024-03-12T06:02:47.333Z,9.15
2024-03-12T06:05:14.383Z,9.31
2024-03-12T06:07:44.731Z,9.49
2024-03-12T06:10:11.798Z,9.76
2024-03-12T06:12:39.445Z,10.02
2024-03-12T06:15:06.650Z,10.23
2024-03-12T06:17:33.994Z,10.41
2024-03-12T06:20:00.909Z,10.55
2024-03-12T06:22:33.788Z,10.80
2024-03-12T06:25:04.468Z,11.17
2024-03-12T06:27:31.832Z,11.72
2024-03-12T06:29:58.600Z,12.32
2024-03-12T06:32:25.373Z,12.81
2024-03-12T06:34:53.845Z,13.10
2024-03-12T06:37:26.822Z,13.18
2024-03-12T06:39:53.651Z,13.12
2024-03-12T06:42:22.858Z,13.06
2024-03-12T06:44:51.276Z,13.21
2024-03-12T06:47:18.027Z,13.35
2024-03-12T06:49:44.935Z,13.24
2024-03-12T06:52:13.792Z,13.13
2024-03-12T06:54:40.670Z,13.17
2024-03-12T06:57:07.732Z,13.34
2024-03-12T06:59:35.390Z,13.59
2024-03-12T07:02:05.653Z,13.87
2024-03-12T07:04:32.447Z,13.99
2024-03-12T07:06:59.310Z,14.05
2024-03-12T07:09:26.388Z,14.27
2024-03-12T07:11:54.500Z,14.55
2024-03-12T07:14:24.082Z,15.00
2024-03-12T07:16:51.134Z,15.66
2024-03-12T07:19:20.115Z,16.24
2024-03-12T07:21:47.163Z,16.73
2024-03-12T07:24:15.281Z,16.98
2024-03-12T07:26:43.137Z,16.96
2024-03-12T07:29:13.997Z,16.79
2024-03-12T07:31:41.034Z,16.59
2024-03-12T07:34:08.013Z,16.38
2024-03-12T07:36:37.812Z,16.01
2024-03-12T07:39:04.724Z,15.60
2024-03-12T07:41:31.578Z,15.11
2024-03-12T07:44:01.509Z,14.62
2024-03-12T07:46:28.350Z,14.31
2024-03-12T07:48:55.304Z,14.18
2024-03-12T07:51:22.195Z,14.19
2024-03-12T07:53:49.166Z,14.35
2024-03-12T07:56:16.022Z,14.55
2024-03-12T07:58:43.324Z,14.50
2024-03-12T08:01:10.258Z,14.29
2024-03-12T08:03:37.299Z,14.07
2024-03-12T08:06:04.931Z,14.05
2024-03-12T08:08:31.781Z,14.31
2024-03-12T08:10:58.799Z,14.74
2024-03-12T08:13:25.778Z,15.11
2024-03-12T08:15:53.238Z,15.48
2024-03-12T08:18:21.761Z,15.70
2024-03-12T08:20:48.999Z,15.99
2024-03-12T08:23:16.099Z,16.31
2024-03-12T08:25:54.789Z,16.54
2024-03-12T08:28:25.532Z,16.87
2024-03-12T08:30:52.369Z,16.88
2024-03-12T08:33:24.309Z,16.86
2024-03-12T08:35:51.121Z,16.92
2024-03-12T08:38:18.026Z,16.81
2024-03-12T08:40:44.823Z,16.64
2024-03-12T08:43:11.812Z,16.46
2024-03-12T08:45:38.716Z,16.30
2024-03-12T08:48:05.999Z,16.06
2024-03-12T08:50:33.250Z,15.92
2024-03-12T08:53:00.343Z,15.88
2024-03-12T08:55:27.207Z,15.75
2024-03-12T08:57:54.406Z,15.71
2024-03-12T09:00:21.497Z,15.65
2024-03-12T09:02:48.339Z,15.79
2024-03-12T09:05:15.181Z,15.97
2024-03-12T09:07:48.460Z,16.14
2024-03-12T09:10:19.957Z,16.39
2024-03-12T09:12:46.759Z,16.46
2024-03-12T09:15:13.596Z,16.35
2024-03-12T09:17:40.654Z,16.14
2024-03-12T09:20:08.223Z,15.99
2024-03-12T09:22:39.293Z,15.73
2024-03-12T09:25:06.930Z,15.52
2024-03-12T09:27:33.770Z,15.36
2024-03-12T09:30:00.602Z,15.21
2024-03-12T09:32:27.474Z,15.02
2024-03-12T09:34:55.305Z,14.78
2024-03-12T09:37:22.198Z,14.80
2024-03-12T09:39:53.127Z,14.87
2024-03-12T09:42:23.661Z,14.86
2024-03-12T09:44:51.032Z,15.09
2024-03-12T09:47:17.877Z,15.32
2024-03-12T09:49:49.430Z,15.56
2024-03-12T09:52:16.398Z,15.83
2024-03-12T09:54:48.945Z,15.99
2024-03-12T09:57:19.001Z,16.24
2024-03-12T09:59:49.083Z,16.34
2024-03-12T10:02:16.207Z,16.38
2024-03-12T10:04:43.264Z,16.44
2024-03-12T10:07:10.280Z,16.55
2024-03-12T10:09:39.349Z,16.64
2024-03-12T10:12:10.266Z,16.74
2024-03-12T10:14:37.091Z,16.90
2024-03-12T10:17:15.225Z,16.87
2024-03-12T10:19:46.964Z,17.05
2024-03-12T10:22:19.174Z,17.25
2024-03-12T10:24:46.087Z,17.52
2024-03-12T10:27:13.025Z,17.42
2024-03-12T10:29:44.244Z,17.17
2024-03-12T10:32:21.443Z,17.19
2024-03-12T10:34:49.106Z,17.21
2024-03-12T10:37:33.390Z,16.83
2024-03-12T10:40:22.516Z,16.89
2024-03-12T10:42:57.574Z,17.01
2024-03-12T10:45:25.815Z,17.08
2024-03-12T10:47:56.217Z,17.19
2024-03-12T10:50:26.399Z,17.41
2024-03-12T10:52:54.825Z,17.70
2024-03-12T10:55:26.135Z,17.77
2024-03-12T10:57:58.906Z,17.93
2024-03-12T11:00:31.348Z,18.00
2024-03-12T11:03:01.972Z,18.15
2024-03-12T11:05:29.438Z,17.99
2024-03-12T11:07:57.342Z,18.09
2024-03-12T11:10:26.302Z,18.13
2024-03-12T11:12:54.570Z,18.20
2024-03-12T11:15:21.709Z,18.47
2024-03-12T11:17:50.621Z,18.81
2024-03-12T11:20:18.080Z,19.03
2024-03-12T11:22:47.062Z,19.17
2024-03-12T11:25:27.020Z,19.40
2024-03-12T11:28:17.174Z,19.34
2024-03-12T11:30:44.033Z,19.29
2024-03-12T11:33:10.909Z,19.20
2024-03-12T11:35:37.763Z,19.24
2024-03-12T11:40:50.990Z,19.39
2024-03-12T11:43:46.374Z,19.50
2024-03-12T11:46:44.268Z,19.82
2024-03-12T11:49:33.142Z,20.05
2024-03-12T11:52:00.178Z,20.21
2024-03-12T11:54:42.872Z,20.12
2024-03-12T11:57:27.160Z,20.15
2024-03-12T11:59:54.020Z,20.30
2024-03-12T12:02:22.256Z,20.30
2024-03-12T12:04:49.637Z,20.42
2024-03-12T12:07:16.678Z,20.66
2024-03-12T12:09:51.950Z,20.81
2024-03-12T12:12:19.557Z,20.97
2024-03-12T12:14:47.349Z,20.74
2024-03-12T12:17:21.172Z,20.57
2024-03-12T12:20:10.409Z,20.69
2024-03-12T12:22:37.273Z,20.88
2024-03-12T12:25:04.572Z,20.64
2024-03-12T12:27:31.555Z,20.43
2024-03-12T12:29:59.943Z,20.27
2024-03-12T12:32:28.654Z,20.35
2024-03-12T12:34:55.685Z,20.38
2024-03-12T12:37:26.294Z,20.38
2024-03-12T12:39:55.491Z,20.54
2024-03-12T12:42:26.840Z,20.62
2024-03-12T12:44:53.767Z,20.79
2024-03-12T12:47:23.240Z,20.82
2024-03-12T12:50:00.043Z,20.66
2024-03-12T12:52:27.722Z,20.62
2024-03-12T12:55:00.945Z,20.37
2024-03-12T12:57:33.726Z,20.20
2024-03-12T13:00:00.790Z,20.09
2024-03-12T13:02:30.510Z,19.91
2024-03-12T13:04:58.606Z,19.91
2024-03-12T13:07:29.733Z,20.17
2024-03-12T13:09:56.641Z,20.38
2024-03-12T13:12:23.436Z,20.50
2024-03-12T13:14:50.268Z,20.51
2024-03-12T13:17:18.507Z,20.67
2024-03-12T13:19:45.406Z,20.68
2024-03-12T13:22:16.333Z,20.58
2024-03-12T13:24:46.672Z,20.58
2024-03-12T13:27:13.584Z,20.82
2024-03-12T13:29:40.414Z,21.16
2024-03-12T13:32:07.451Z,21.31
2024-03-12T13:34:34.706Z,21.44
2024-03-12T13:37:01.524Z,21.51
2024-03-12T13:39:28.320Z,21.39
2024-03-12T13:41:55.366Z,21.28
2024-03-12T13:44:22.262Z,21.23
2024-03-12T13:46:49.050Z,21.30
2024-03-12T13:49:16.086Z,21.40
2024-03-12T13:51:43.864Z,21.49
2024-03-12T13:54:11.295Z,21.53
2024-03-12T13:56:38.992Z,21.50
2024-03-12T13:59:10.749Z,21.51
2024-03-12T14:01:37.766Z,21.61
2024-03-12T14:04:04.956Z,21.73
2024-03-12T14:06:31.879Z,21.71
2024-03-12T14:08:58.998Z,21.71
2024-03-12T14:11:26.252Z,21.78
2024-03-12T14:13:53.320Z,21.81
2024-03-12T14:16:22.767Z,21.77
2024-03-12T14:18:50.193Z,21.66
2024-03-12T14:21:17.133Z,21.62
2024-03-12T14:23:43.947Z,21.66
2024-03-12T14:26:11.075Z,21.70
2024-03-12T14:28:41.552Z,21.73
2024-03-12T14:31:08.426Z,21.74
2024-03-12T14:33:35.438Z,21.80
2024-03-12T14:36:02.297Z,21.77
2024-03-12T14:38:29.023Z,21.73
2024-03-12T14:40:55.817Z,21.71
2024-03-12T14:43:23.861Z,21.56
2024-03-12T14:45:50.681Z,21.51
2024-03-12T14:48:21.912Z,21.56
2024-03-12T14:50:48.785Z,21.81
2024-03-12T14:53:21.134Z,21.98
2024-03-12T14:55:47.938Z,22.10
2024-03-12T14:58:14.993Z,22.06
2024-03-12T15:00:41.813Z,22.16
2024-03-12T15:03:08.778Z,22.31
2024-03-12T15:05:35.573Z,22.35
2024-03-12T15:08:03.636Z,22.22
2024-03-12T15:10:30.535Z,22.02
2024-03-12T15:13:00.675Z,21.97
2024-03-12T15:15:28.287Z,22.02
2024-03-12T15:17:55.072Z,22.00
2024-03-12T15:20:22.028Z,21.90
2024-03-12T15:22:49.747Z,21.81
2024-03-12T15:25:16.899Z,21.79
2024-03-12T15:27:43.800Z,21.80
2024-03-12T15:30:11.298Z,21.71
2024-03-12T15:32:38.116Z,21.67
2024-03-12T15:35:06.104Z,21.60
2024-03-12T15:37:36.385Z,21.62
2024-03-12T15:40:03.449Z,21.72
2024-03-12T15:42:33.606Z,21.66
2024-03-12T15:45:04.805Z,21.44
2024-03-12T15:47:32.232Z,21.15
2024-03-12T15:49:59.023Z,21.06
2024-03-12T15:52:28.355Z,20.99
2024-03-12T15:54:55.977Z,21.03
2024-03-12T15:57:22.821Z,21.01
2024-03-12T15:59:52.434Z,20.92
2024-03-12T16:02:19.445Z,20.93
2024-03-12T16:04:46.570Z,20.84
2024-03-12T16:07:13.494Z,20.72
2024-03-12T16:09:40.736Z,20.55
2024-03-12T16:12:08.568Z,20.36
2024-03-12T16:14:36.184Z,20.22
2024-03-12T16:17:02.967Z,20.10
2024-03-12T16:19:33.079Z,19.99
2024-03-12T16:21:59.859Z,19.89
2024-03-12T16:24:27.796Z,19.81
2024-03-12T16:26:55.374Z,19.70
2024-03-12T16:29:22.124Z,19.67
2024-03-12T16:31:50.933Z,19.57
2024-03-12T16:34:17.891Z,19.45
2024-03-12T16:36:44.862Z,19.32
2024-03-12T16:39:13.683Z,19.20
2024-03-12T16:41:41.562Z,18.98
2024-03-12T16:44:08.390Z,18.80
2024-03-12T16:46:35.191Z,18.59
2024-03-12T16:49:02.058Z,18.52
2024-03-12T16:51:28.942Z,18.41
2024-03-12T16:53:59.547Z,18.28
2024-03-12T16:56:26.858Z,18.13
2024-03-12T16:58:54.346Z,17.92
2024-03-12T17:01:21.748Z,17.65
2024-03-12T17:03:53.149Z,17.32
2024-03-12T17:06:21.249Z,17.05
2024-03-12T17:08:48.325Z,16.79
2024-03-12T17:11:15.302Z,16.56
2024-03-12T17:13:50.515Z,16.31
2024-03-12T17:16:18.948Z,16.10
2024-03-12T17:18:46.236Z,16.00
2024-03-12T17:21:13.214Z,15.80
2024-03-12T17:23:40.180Z,15.62
2024-03-12T17:26:07.244Z,15.47
2024-03-12T17:28:34.439Z,15.32
2024-03-12T17:31:01.727Z,15.19
2024-03-12T17:33:29.192Z,15.04
2024-03-12T17:35:57.758Z,14.91
2024-03-12T17:38:26.343Z,14.79
2024-03-12T17:40:54.329Z,14.70
2024-03-12T17:43:28.539Z,14.47
2024-03-12T17:45:55.899Z,14.51
2024-03-12T17:48:23.089Z,14.41
2024-03-12T17:50:50.228Z,14.29
2024-03-12T17:53:17.342Z,14.26
2024-03-12T17:55:44.509Z,14.24
2024-03-12T17:58:13.187Z,14.16
2024-03-12T18:00:40.338Z,14.10
2024-03-12T18:03:07.749Z,14.03
2024-03-12T18:05:34.799Z,13.96
2024-03-12T18:08:03.823Z,13.89
2024-03-12T18:10:33.455Z,13.79
2024-03-12T18:13:00.810Z,13.71
2024-03-12T18:15:27.821Z,13.62
2024-03-12T18:17:54.726Z,13.57
2024-03-12T18:20:26.299Z,13.39
2024-03-12T18:22:53.075Z,13.40
2024-03-12T18:25:19.896Z,13.30
2024-03-12T18:27:46.896Z,13.21
2024-03-12T18:30:13.919Z,13.10
2024-03-12T18:32:40.750Z,13.05
2024-03-12T18:35:09.387Z,12.96
2024-03-12T18:37:40.519Z,12.89
2024-03-12T18:40:11.699Z,12.84
2024-03-12T18:42:51.738Z,12.75
2024-03-12T18:45:19.886Z,12.73
2024-03-12T18:47:47.591Z,12.70
2024-03-12T18:50:14.712Z,12.68
2024-03-12T18:52:42.692Z,12.59
2024-03-12T18:55:10.810Z,12.63
2024-03-12T18:57:38.994Z,12.57
2024-03-12T19:00:07.337Z,12.49
2024-03-12T19:02:39.957Z,12.38
2024-03-12T19:05:08.333Z,12.30
2024-03-12T19:07:47.091Z,12.20
2024-03-12T19:10:15.133Z,12.18
2024-03-12T19:12:49.152Z,12.02
2024-03-12T19:15:19.661Z,12.04
2024-03-12T19:17:51.378Z,11.94
2024-03-12T19:20:21.010Z,11.87
2024-03-12T19:22:52.252Z,11.80
2024-03-12T19:25:23.681Z,11.74
2024-03-12T19:27:53.317Z,11.68
2024-03-12T19:30:22.071Z,11.69
2024-03-12T19:32:54.539Z,11.51
2024-03-12T19:35:28.303Z,11.54
2024-03-12T19:37:55.620Z,11.53
2024-03-12T19:40:25.324Z,11.44
2024-03-12T19:42:53.686Z,11.42
2024-03-12T19:45:22.996Z,11.40
2024-03-12T19:47:51.706Z,11.42
2024-03-12T19:50:26.240Z,11.43
2024-03-12T19:52:59.162Z,11.40
2024-03-12T19:55:29.337Z,11.37
2024-03-12T19:57:57.988Z,11.34
2024-03-12T20:00:31.058Z,11.31
2024-03-12T20:03:09.105Z,11.28
2024-03-12T20:05:35.894Z,11.26
2024-03-12T20:08:06.462Z,11.11
2024-03-12T20:10:41.969Z,11.11
2024-03-12T20:13:18.377Z,11.05
2024-03-12T20:15:48.004Z,10.96
2024-03-12T20:18:15.171Z,10.94
2024-03-12T20:20:42.259Z,10.91
2024-03-12T20:23:09.051Z,10.87
2024-03-12T20:25:40.392Z,10.84
2024-03-12T20:28:09.168Z,10.83
2024-03-12T20:30:36.255Z,10.82
2024-03-12T20:33:03.388Z,10.85
2024-03-12T20:35:30.302Z,10.87
2024-03-12T20:38:00.413Z,10.88
2024-03-12T20:40:27.567Z,10.94
2024-03-12T20:43:03.164Z,10.89
2024-03-12T20:45:30.899Z,10.96
2024-03-12T20:47:58.156Z,10.99
2024-03-12T20:50:25.548Z,11.01
2024-03-12T20:52:52.350Z,11.05
2024-03-12T20:55:19.257Z,11.08
2024-03-12T20:57:46.148Z,11.13
2024-03-12T21:00:15.134Z,11.15
2024-03-12T21:02:47.819Z,11.22
2024-03-12T21:05:17.752Z,11.28
2024-03-12T21:07:44.815Z,11.36
2024-03-12T21:10:12.811Z,11.37
2024-03-12T21:12:39.975Z,11.42
2024-03-12T21:15:07.787Z,11.43
2024-03-12T21:17:37.821Z,11.40
2024-03-12T21:20:05.095Z,11.39
2024-03-12T21:22:31.849Z,11.37
2024-03-12T21:24:58.640Z,11.38
2024-03-12T21:27:28.009Z,11.40
2024-03-12T21:29:55.304Z,11.38
2024-03-12T21:32:22.105Z,11.37
2024-03-12T21:34:48.897Z,11.39
2024-03-12T21:37:15.753Z,11.42
2024-03-12T21:39:47.743Z,11.39
2024-03-12T21:42:14.546Z,11.45
2024-03-12T21:44:41.291Z,11.43
2024-03-12T21:47:08.902Z,11.39
2024-03-12T21:49:35.917Z,11.40
2024-03-12T21:52:03.324Z,11.37
2024-03-12T21:54:30.351Z,11.36
2024-03-12T21:57:00.415Z,11.32
2024-03-12T21:59:27.300Z,11.33
2024-03-12T22:01:56.669Z,11.35
2024-03-12T22:04:24.049Z,11.25
2024-03-12T22:06:55.713Z,11.33
2024-03-12T22:09:24.878Z,11.34
2024-03-12T22:11:51.845Z,11.31
2024-03-12T22:14:18.834Z,11.32
2024-03-12T22:16:45.717Z,11.24
2024-03-12T22:19:12.743Z,11.29
2024-03-12T22:21:39.702Z,11.30
2024-03-12T22:24:06.789Z,11.32
2024-03-12T22:26:34.983Z,11.34
2024-03-12T22:29:02.077Z,11.40
2024-03-12T22:31:29.107Z,11.39
2024-03-12T22:33:56.216Z,11.40
2024-03-12T22:36:23.362Z,11.31
2024-03-12T22:38:50.742Z,11.33
2024-03-12T22:41:17.921Z,11.34
2024-03-12T22:43:47.427Z,11.31
2024-03-12T22:46:14.530Z,11.35
2024-03-12T22:48:41.962Z,11.32
2024-03-12T22:51:09.302Z,11.33
2024-03-12T22:53:36.234Z,11.26
2024-03-12T22:56:03.247Z,11.30
2024-03-12T22:58:30.562Z,11.30
2024-03-12T23:00:58.085Z,11.31
2024-03-12T23:03:25.689Z,11.27
2024-03-12T23:05:57.658Z,11.27
2024-03-12T23:08:24.803Z,11.34
2024-03-12T23:10:51.708Z,11.26
2024-03-12T23:13:27.403Z,11.38
2024-03-12T23:15:55.699Z,11.40
2024-03-12T23:18:22.679Z,11.44
2024-03-12T23:20:49.478Z,11.46
2024-03-12T23:23:17.067Z,11.48
2024-03-12T23:25:47.205Z,11.48
2024-03-12T23:28:14.136Z,11.49
2024-03-12T23:30:41.567Z,11.46
2024-03-12T23:33:08.416Z,11.48
2024-03-12T23:35:36.340Z,11.48
2024-03-12T23:38:07.256Z,11.48
2024-03-12T23:40:34.167Z,11.54
2024-03-12T23:43:04.316Z,11.53
2024-03-12T23:45:31.265Z,11.57
2024-03-12T23:48:00.903Z,11.55
2024-03-12T23:50:27.684Z,11.55
2024-03-12T23:52:54.486Z,11.55
2024-03-12T23:55:21.402Z,11.54
2024-03-12T23:57:48.280Z,11.56
